sensor_id;sensor_type;location;lat;lon;timestamp;temperature;humidity
43991;DHT22;29654;50.784;20.604;2022-12-05T00:03:25;6.30;64.40
43991;DHT22;29654;50.784;20.604;2022-12-05T00:08:28;6.30;64.40
43991;DHT22;29654;50.784;20.604;2022-12-05T00:13:32;6.40;64.30
43991;DHT22;29654;50.784;20.604;2022-12-05T00:18:35;6.40;64.30
43991;DHT22;29654;50.784;20.604;2022-12-05T00:23:38;6.30;64.20
43991;DHT22;29654;50.784;20.604;2022-12-05T00:28:42;6.30;64.20
43991;DHT22;29654;50.784;20.604;2022-12-05T00:33:45;6.30;64.20
43991;DHT22;29654;50.784;20.604;2022-12-05T00:38:48;6.30;64.30
43991;DHT22;29654;50.784;20.604;2022-12-05T00:43:53;6.30;64.30
43991;DHT22;29654;50.784;20.604;2022-12-05T00:48:57;6.30;64.50
43991;DHT22;29654;50.784;20.604;2022-12-05T00:54:03;6.30;64.50
43991;DHT22;29654;50.784;20.604;2022-12-05T00:59:13;6.20;64.40
43991;DHT22;29654;50.784;20.604;2022-12-05T01:04:22;6.30;64.70
43991;DHT22;29654;50.784;20.604;2022-12-05T01:09:25;6.30;64.50
43991;DHT22;29654;50.784;20.604;2022-12-05T01:14:29;6.30;64.40
43991;DHT22;29654;50.784;20.604;2022-12-05T01:19:32;6.20;64.50
43991;DHT22;29654;50.784;20.604;2022-12-05T01:24:35;6.20;64.50
43991;DHT22;29654;50.784;20.604;2022-12-05T01:29:39;6.20;64.70
43991;DHT22;29654;50.784;20.604;2022-12-05T01:34:42;6.30;64.60
43991;DHT22;29654;50.784;20.604;2022-12-05T01:39:45;6.30;64.50
43991;DHT22;29654;50.784;20.604;2022-12-05T01:45:06;6.30;64.40
43991;DHT22;29654;50.784;20.604;2022-12-05T01:50:14;6.30;64.60
43991;DHT22;29654;50.784;20.604;2022-12-05T01:55:17;6.30;64.50
43991;DHT22;29654;50.784;20.604;2022-12-05T02:00:22;6.30;64.60
43991;DHT22;29654;50.784;20.604;2022-12-05T02:05:27;6.30;64.60
43991;DHT22;29654;50.784;20.604;2022-12-05T02:10:36;6.30;64.50
43991;DHT22;29654;50.784;20.604;2022-12-05T02:15:46;6.30;64.50
43991;DHT22;29654;50.784;20.604;2022-12-05T02:21:06;6.30;64.50
43991;DHT22;29654;50.784;20.604;2022-12-05T02:26:47;6.30;64.70
43991;DHT22;29654;50.784;20.604;2022-12-05T02:32:04;6.30;64.70
43991;DHT22;29654;50.784;20.604;2022-12-05T02:37:15;6.40;64.70
43991;DHT22;29654;50.784;20.604;2022-12-05T02:42:27;6.40;64.60
43991;DHT22;29654;50.784;20.604;2022-12-05T02:47:37;6.40;64.50
43991;DHT22;29654;50.784;20.604;2022-12-05T02:52:42;6.40;64.50
43991;DHT22;29654;50.784;20.604;2022-12-05T02:57:51;6.40;64.50
43991;DHT22;29654;50.784;20.604;2022-12-05T03:02:59;6.40;64.50
43991;DHT22;29654;50.784;20.604;2022-12-05T03:08:02;6.40;64.50
43991;DHT22;29654;50.784;20.604;2022-12-05T03:13:08;6.40;64.50
43991;DHT22;29654;50.784;20.604;2022-12-05T03:18:16;6.40;64.60
43991;DHT22;29654;50.784;20.604;2022-12-05T03:23:24;6.40;64.70
43991;DHT22;29654;50.784;20.604;2022-12-05T03:28:34;6.40;64.70
43991;DHT22;29654;50.784;20.604;2022-12-05T03:33:49;6.40;64.70
43991;DHT22;29654;50.784;20.604;2022-12-05T03:38:54;6.40;64.80
43991;DHT22;29654;50.784;20.604;2022-12-05T03:44:02;6.40;64.70
43991;DHT22;29654;50.784;20.604;2022-12-05T03:49:13;6.50;64.70
43991;DHT22;29654;50.784;20.604;2022-12-05T03:54:24;6.50;64.50
43991;DHT22;29654;50.784;20.604;2022-12-05T03:59:32;6.50;64.50
43991;DHT22;29654;50.784;20.604;2022-12-05T04:04:44;6.50;64.50
43991;DHT22;29654;50.784;20.604;2022-12-05T04:09:54;6.50;64.70
43991;DHT22;29654;50.784;20.604;2022-12-05T04:15:01;6.50;64.70
43991;DHT22;29654;50.784;20.604;2022-12-05T04:20:20;6.60;64.70
43991;DHT22;29654;50.784;20.604;2022-12-05T04:25:49;6.60;64.60
43991;DHT22;29654;50.784;20.604;2022-12-05T04:31:02;6.60;64.70
43991;DHT22;29654;50.784;20.604;2022-12-05T04:36:11;6.70;64.70
43991;DHT22;29654;50.784;20.604;2022-12-05T04:41:20;6.70;64.50
43991;DHT22;29654;50.784;20.604;2022-12-05T04:46:24;6.80;64.30
43991;DHT22;29654;50.784;20.604;2022-12-05T04:51:30;6.80;64.30
43991;DHT22;29654;50.784;20.604;2022-12-05T04:56:36;6.80;64.30
43991;DHT22;29654;50.784;20.604;2022-12-05T05:01:43;6.80;64.20
43991;DHT22;29654;50.784;20.604;2022-12-05T05:06:49;6.80;64.20
43991;DHT22;29654;50.784;20.604;2022-12-05T05:11:52;6.90;64.20
43991;DHT22;29654;50.784;20.604;2022-12-05T05:16:55;6.80;64.10
43991;DHT22;29654;50.784;20.604;2022-12-05T05:22:00;6.80;64.20
43991;DHT22;29654;50.784;20.604;2022-12-05T05:27:02;6.80;64.20
43991;DHT22;29654;50.784;20.604;2022-12-05T05:32:05;6.90;64.30
43991;DHT22;29654;50.784;20.604;2022-12-05T05:37:09;6.90;64.20
43991;DHT22;29654;50.784;20.604;2022-12-05T05:42:12;6.90;64.20
43991;DHT22;29654;50.784;20.604;2022-12-05T05:47:14;7.00;64.30
43991;DHT22;29654;50.784;20.604;2022-12-05T05:52:19;7.00;64.20
43991;DHT22;29654;50.784;20.604;2022-12-05T05:57:22;7.00;64.10
43991;DHT22;29654;50.784;20.604;2022-12-05T06:02:24;7.00;63.90
43991;DHT22;29654;50.784;20.604;2022-12-05T06:07:28;7.10;64.10
43991;DHT22;29654;50.784;20.604;2022-12-05T06:12:31;7.10;64.00
43991;DHT22;29654;50.784;20.604;2022-12-05T06:17:34;7.10;64.00
43991;DHT22;29654;50.784;20.604;2022-12-05T06:22:38;7.00;64.00
43991;DHT22;29654;50.784;20.604;2022-12-05T06:27:41;7.10;64.10
43991;DHT22;29654;50.784;20.604;2022-12-05T06:32:43;7.10;64.10
43991;DHT22;29654;50.784;20.604;2022-12-05T06:37:47;7.10;64.00
43991;DHT22;29654;50.784;20.604;2022-12-05T06:42:50;7.10;64.10
43991;DHT22;29654;50.784;20.604;2022-12-05T06:47:52;7.10;64.10
43991;DHT22;29654;50.784;20.604;2022-12-05T06:52:56;7.10;64.00
43991;DHT22;29654;50.784;20.604;2022-12-05T06:57:59;7.20;64.20
43991;DHT22;29654;50.784;20.604;2022-12-05T07:03:02;7.20;64.10
43991;DHT22;29654;50.784;20.604;2022-12-05T07:08:06;7.30;64.20
43991;DHT22;29654;50.784;20.604;2022-12-05T07:13:08;7.30;64.00
43991;DHT22;29654;50.784;20.604;2022-12-05T07:18:11;7.30;63.80
43991;DHT22;29654;50.784;20.604;2022-12-05T07:23:15;7.30;63.90
43991;DHT22;29654;50.784;20.604;2022-12-05T07:28:18;7.30;64.00
43991;DHT22;29654;50.784;20.604;2022-12-05T07:33:20;7.30;64.00
43991;DHT22;29654;50.784;20.604;2022-12-05T07:38:24;7.30;64.10
43991;DHT22;29654;50.784;20.604;2022-12-05T07:43:27;7.40;64.10
43991;DHT22;29654;50.784;20.604;2022-12-05T07:48:30;7.40;64.10
43991;DHT22;29654;50.784;20.604;2022-12-05T07:53:35;7.40;64.10
43991;DHT22;29654;50.784;20.604;2022-12-05T07:58:38;7.40;64.10
43991;DHT22;29654;50.784;20.604;2022-12-05T08:03:41;7.50;64.20
43991;DHT22;29654;50.784;20.604;2022-12-05T08:08:46;7.50;64.10
43991;DHT22;29654;50.784;20.604;2022-12-05T08:13:49;7.60;64.10
43991;DHT22;29654;50.784;20.604;2022-12-05T08:18:54;7.60;64.10
43991;DHT22;29654;50.784;20.604;2022-12-05T08:23:58;7.60;64.20
43991;DHT22;29654;50.784;20.604;2022-12-05T08:29:03;7.70;64.10
43991;DHT22;29654;50.784;20.604;2022-12-05T08:34:07;7.80;64.10
43991;DHT22;29654;50.784;20.604;2022-12-05T08:39:14;7.80;64.00
43991;DHT22;29654;50.784;20.604;2022-12-05T08:44:20;7.80;64.00
43991;DHT22;29654;50.784;20.604;2022-12-05T08:49:22;7.90;64.10
43991;DHT22;29654;50.784;20.604;2022-12-05T08:54:27;7.90;64.10
43991;DHT22;29654;50.784;20.604;2022-12-05T08:59:29;8.00;65.00
43991;DHT22;29654;50.784;20.604;2022-12-05T09:04:32;8.10;64.10
43991;DHT22;29654;50.784;20.604;2022-12-05T09:09:36;8.10;64.10
43991;DHT22;29654;50.784;20.604;2022-12-05T09:14:39;8.20;64.00
43991;DHT22;29654;50.784;20.604;2022-12-05T09:19:42;8.20;63.80
43991;DHT22;29654;50.784;20.604;2022-12-05T09:24:46;8.30;63.90
43991;DHT22;29654;50.784;20.604;2022-12-05T09:29:49;8.30;63.80
43991;DHT22;29654;50.784;20.604;2022-12-05T09:34:51;8.30;63.90
43991;DHT22;29654;50.784;20.604;2022-12-05T09:39:55;8.40;64.00
43991;DHT22;29654;50.784;20.604;2022-12-05T09:45:04;8.50;63.90
43991;DHT22;29654;50.784;20.604;2022-12-05T09:50:19;8.60;63.80
43991;DHT22;29654;50.784;20.604;2022-12-05T09:55:24;8.70;63.80
43991;DHT22;29654;50.784;20.604;2022-12-05T10:00:32;8.70;63.80
43991;DHT22;29654;50.784;20.604;2022-12-05T10:05:41;8.80;63.70
43991;DHT22;29654;50.784;20.604;2022-12-05T10:10:58;8.90;63.60
43991;DHT22;29654;50.784;20.604;2022-12-05T10:16:04;9.00;63.50
43991;DHT22;29654;50.784;20.604;2022-12-05T10:21:15;9.10;63.60
43991;DHT22;29654;50.784;20.604;2022-12-05T10:26:22;9.20;63.50
43991;DHT22;29654;50.784;20.604;2022-12-05T10:31:31;9.30;63.40
43991;DHT22;29654;50.784;20.604;2022-12-05T10:36:35;9.40;63.40
43991;DHT22;29654;50.784;20.604;2022-12-05T10:41:39;9.50;63.30
43991;DHT22;29654;50.784;20.604;2022-12-05T10:46:41;9.60;63.10
43991;DHT22;29654;50.784;20.604;2022-12-05T10:51:44;9.70;63.30
43991;DHT22;29654;50.784;20.604;2022-12-05T10:56:50;9.80;63.20
43991;DHT22;29654;50.784;20.604;2022-12-05T11:01:54;9.80;62.90
43991;DHT22;29654;50.784;20.604;2022-12-05T11:07:00;9.90;63.10
43991;DHT22;29654;50.784;20.604;2022-12-05T11:12:18;10.00;63.00
43991;DHT22;29654;50.784;20.604;2022-12-05T11:17:23;10.10;62.50
43991;DHT22;29654;50.784;20.604;2022-12-05T11:22:33;10.20;62.80
43991;DHT22;29654;50.784;20.604;2022-12-05T11:27:38;10.40;62.60
43991;DHT22;29654;50.784;20.604;2022-12-05T11:32:42;10.40;62.50
43991;DHT22;29654;50.784;20.604;2022-12-05T11:37:47;10.50;62.40
43991;DHT22;29654;50.784;20.604;2022-12-05T11:43:10;10.60;62.10
43991;DHT22;29654;50.784;20.604;2022-12-05T11:48:39;10.60;61.80
43991;DHT22;29654;50.784;20.604;2022-12-05T11:54:06;10.70;61.60
43991;DHT22;29654;50.784;20.604;2022-12-05T11:59:47;10.80;61.50
43991;DHT22;29654;50.784;20.604;2022-12-05T12:05:02;10.80;61.40
43991;DHT22;29654;50.784;20.604;2022-12-05T12:10:22;10.80;61.70
43991;DHT22;29654;50.784;20.604;2022-12-05T12:15:41;10.90;61.60
43991;DHT22;29654;50.784;20.604;2022-12-05T12:21:03;10.90;61.50
43991;DHT22;29654;50.784;20.604;2022-12-05T12:26:13;11.00;61.60
43991;DHT22;29654;50.784;20.604;2022-12-05T12:31:34;11.10;61.70
43991;DHT22;29654;50.784;20.604;2022-12-05T12:36:50;11.10;61.40
43991;DHT22;29654;50.784;20.604;2022-12-05T12:42:17;11.10;61.60
43991;DHT22;29654;50.784;20.604;2022-12-05T12:47:34;11.20;61.20
43991;DHT22;29654;50.784;20.604;2022-12-05T12:53:12;11.40;61.50
43991;DHT22;29654;50.784;20.604;2022-12-05T12:58:42;11.40;61.10
43991;DHT22;29654;50.784;20.604;2022-12-05T13:03:52;11.50;61.00
43991;DHT22;29654;50.784;20.604;2022-12-05T13:09:05;11.60;61.00
43991;DHT22;29654;50.784;20.604;2022-12-05T13:14:15;11.60;60.90
43991;DHT22;29654;50.784;20.604;2022-12-05T13:19:27;11.60;60.90
43991;DHT22;29654;50.784;20.604;2022-12-05T13:24:37;11.60;60.60
43991;DHT22;29654;50.784;20.604;2022-12-05T13:29:47;11.70;61.10
43991;DHT22;29654;50.784;20.604;2022-12-05T13:34:54;11.80;60.90
43991;DHT22;29654;50.784;20.604;2022-12-05T13:39:57;11.80;60.70
43991;DHT22;29654;50.784;20.604;2022-12-05T13:45:19;11.80;60.50
43991;DHT22;29654;50.784;20.604;2022-12-05T13:50:28;11.80;60.40
43991;DHT22;29654;50.784;20.604;2022-12-05T13:55:36;11.90;60.00
43991;DHT22;29654;50.784;20.604;2022-12-05T14:00:40;11.80;60.00
43991;DHT22;29654;50.784;20.604;2022-12-05T14:05:50;11.80;59.90
43991;DHT22;29654;50.784;20.604;2022-12-05T14:11:09;11.80;59.80
43991;DHT22;29654;50.784;20.604;2022-12-05T14:16:45;11.70;59.60
43991;DHT22;29654;50.784;20.604;2022-12-05T14:21:56;11.60;59.40
43991;DHT22;29654;50.784;20.604;2022-12-05T14:27:09;11.60;59.80
43991;DHT22;29654;50.784;20.604;2022-12-05T14:32:22;11.60;59.90
43991;DHT22;29654;50.784;20.604;2022-12-05T14:37:30;11.50;59.80
43991;DHT22;29654;50.784;20.604;2022-12-05T14:42:37;11.40;59.80
43991;DHT22;29654;50.784;20.604;2022-12-05T14:47:51;11.30;59.90
43991;DHT22;29654;50.784;20.604;2022-12-05T14:53:37;11.30;60.00
43991;DHT22;29654;50.784;20.604;2022-12-05T14:58:45;11.20;59.80
43991;DHT22;29654;50.784;20.604;2022-12-05T15:04:03;11.10;60.20
43991;DHT22;29654;50.784;20.604;2022-12-05T15:09:34;11.10;60.10
43991;DHT22;29654;50.784;20.604;2022-12-05T15:15:02;11.10;60.00
43991;DHT22;29654;50.784;20.604;2022-12-05T15:20:16;11.00;60.00
43991;DHT22;29654;50.784;20.604;2022-12-05T15:25:29;10.90;60.00
43991;DHT22;29654;50.784;20.604;2022-12-05T15:30:35;10.80;60.00
43991;DHT22;29654;50.784;20.604;2022-12-05T15:35:40;10.70;60.20
43991;DHT22;29654;50.784;20.604;2022-12-05T15:40:49;10.60;60.40
43991;DHT22;29654;50.784;20.604;2022-12-05T15:46:16;10.50;60.50
43991;DHT22;29654;50.784;20.604;2022-12-05T15:51:29;10.50;60.50
43991;DHT22;29654;50.784;20.604;2022-12-05T15:56:38;10.50;60.70
43991;DHT22;29654;50.784;20.604;2022-12-05T16:01:45;10.50;60.60
43991;DHT22;29654;50.784;20.604;2022-12-05T16:06:53;10.50;60.50
43991;DHT22;29654;50.784;20.604;2022-12-05T16:12:01;10.60;60.50
43991;DHT22;29654;50.784;20.604;2022-12-05T16:17:13;10.60;60.40
43991;DHT22;29654;50.784;20.604;2022-12-05T16:22:21;10.50;60.40
43991;DHT22;29654;50.784;20.604;2022-12-05T16:27:28;10.60;60.40
43991;DHT22;29654;50.784;20.604;2022-12-05T16:32:34;10.60;60.30
43991;DHT22;29654;50.784;20.604;2022-12-05T16:37:38;10.60;60.30
43991;DHT22;29654;50.784;20.604;2022-12-05T16:42:42;10.70;60.40
43991;DHT22;29654;50.784;20.604;2022-12-05T16:47:58;10.70;60.20
43991;DHT22;29654;50.784;20.604;2022-12-05T16:53:11;10.80;60.00
43991;DHT22;29654;50.784;20.604;2022-12-05T16:58:20;10.90;60.10
43991;DHT22;29654;50.784;20.604;2022-12-05T17:03:25;10.90;59.90
43991;DHT22;29654;50.784;20.604;2022-12-05T17:08:28;10.90;59.80
43991;DHT22;29654;50.784;20.604;2022-12-05T17:13:33;10.90;59.60
43991;DHT22;29654;50.784;20.604;2022-12-05T17:18:35;10.80;59.50
43991;DHT22;29654;50.784;20.604;2022-12-05T17:23:38;10.70;59.60
43991;DHT22;29654;50.784;20.604;2022-12-05T17:28:42;10.60;59.70
43991;DHT22;29654;50.784;20.604;2022-12-05T17:33:46;10.40;59.80
43991;DHT22;29654;50.784;20.604;2022-12-05T17:38:49;10.30;60.00
43991;DHT22;29654;50.784;20.604;2022-12-05T17:43:53;10.20;60.10
43991;DHT22;29654;50.784;20.604;2022-12-05T17:48:56;10.20;60.20
43991;DHT22;29654;50.784;20.604;2022-12-05T17:53:59;10.10;60.40
43991;DHT22;29654;50.784;20.604;2022-12-05T17:59:03;10.10;60.50
43991;DHT22;29654;50.784;20.604;2022-12-05T18:04:05;10.10;60.70
43991;DHT22;29654;50.784;20.604;2022-12-05T18:09:08;10.00;60.40
43991;DHT22;29654;50.784;20.604;2022-12-05T18:14:12;10.00;60.50
43991;DHT22;29654;50.784;20.604;2022-12-05T18:19:15;10.00;60.50
43991;DHT22;29654;50.784;20.604;2022-12-05T18:24:18;10.00;60.70
43991;DHT22;29654;50.784;20.604;2022-12-05T18:29:23;10.00;60.70
43991;DHT22;29654;50.784;20.604;2022-12-05T18:34:28;10.00;60.60
43991;DHT22;29654;50.784;20.604;2022-12-05T18:39:31;10.00;60.80
43991;DHT22;29654;50.784;20.604;2022-12-05T18:44:35;10.00;60.80
43991;DHT22;29654;50.784;20.604;2022-12-05T18:49:38;10.00;60.60
43991;DHT22;29654;50.784;20.604;2022-12-05T18:54:41;10.00;60.50
43991;DHT22;29654;50.784;20.604;2022-12-05T18:59:45;10.10;60.50
43991;DHT22;29654;50.784;20.604;2022-12-05T19:04:51;10.00;60.40
43991;DHT22;29654;50.784;20.604;2022-12-05T19:09:54;10.00;60.40
43991;DHT22;29654;50.784;20.604;2022-12-05T19:14:58;10.00;60.50
43991;DHT22;29654;50.784;20.604;2022-12-05T19:20:01;9.90;60.50
43991;DHT22;29654;50.784;20.604;2022-12-05T19:25:04;9.90;60.60
43991;DHT22;29654;50.784;20.604;2022-12-05T19:30:10;9.90;60.60
43991;DHT22;29654;50.784;20.604;2022-12-05T19:35:13;9.90;60.50
43991;DHT22;29654;50.784;20.604;2022-12-05T19:40:16;9.90;60.50
43991;DHT22;29654;50.784;20.604;2022-12-05T19:45:20;9.90;60.40
43991;DHT22;29654;50.784;20.604;2022-12-05T19:50:23;9.90;60.50
43991;DHT22;29654;50.784;20.604;2022-12-05T19:55:25;9.80;60.50
43991;DHT22;29654;50.784;20.604;2022-12-05T20:00:29;9.80;60.70
43991;DHT22;29654;50.784;20.604;2022-12-05T20:05:32;9.80;60.80
43991;DHT22;29654;50.784;20.604;2022-12-05T20:10:35;9.80;60.80
43991;DHT22;29654;50.784;20.604;2022-12-05T20:15:39;9.80;60.70
43991;DHT22;29654;50.784;20.604;2022-12-05T20:20:42;9.80;60.90
43991;DHT22;29654;50.784;20.604;2022-12-05T20:25:46;9.70;60.80
43991;DHT22;29654;50.784;20.604;2022-12-05T20:30:50;9.70;61.00
43991;DHT22;29654;50.784;20.604;2022-12-05T20:35:52;9.80;61.00
43991;DHT22;29654;50.784;20.604;2022-12-05T20:40:58;9.80;60.90
43991;DHT22;29654;50.784;20.604;2022-12-05T20:46:05;9.80;61.00
43991;DHT22;29654;50.784;20.604;2022-12-05T20:51:10;9.80;61.00
43991;DHT22;29654;50.784;20.604;2022-12-05T20:56:17;9.80;61.00
43991;DHT22;29654;50.784;20.604;2022-12-05T21:01:23;9.90;61.00
43991;DHT22;29654;50.784;20.604;2022-12-05T21:06:28;9.90;60.80
43991;DHT22;29654;50.784;20.604;2022-12-05T21:11:32;9.90;60.80
43991;DHT22;29654;50.784;20.604;2022-12-05T21:16:36;10.00;60.90
43991;DHT22;29654;50.784;20.604;2022-12-05T21:21:39;10.00;60.70
43991;DHT22;29654;50.784;20.604;2022-12-05T21:26:41;10.00;60.50
43991;DHT22;29654;50.784;20.604;2022-12-05T21:31:49;10.10;60.60
43991;DHT22;29654;50.784;20.604;2022-12-05T21:36:52;10.10;60.50
43991;DHT22;29654;50.784;20.604;2022-12-05T21:41:55;10.10;60.40
43991;DHT22;29654;50.784;20.604;2022-12-05T21:46:59;10.20;60.40
43991;DHT22;29654;50.784;20.604;2022-12-05T21:52:02;10.20;60.40
43991;DHT22;29654;50.784;20.604;2022-12-05T21:57:05;10.20;60.30
43991;DHT22;29654;50.784;20.604;2022-12-05T22:02:10;10.20;60.30
43991;DHT22;29654;50.784;20.604;2022-12-05T22:07:13;10.30;60.20
43991;DHT22;29654;50.784;20.604;2022-12-05T22:12:16;10.30;60.20
43991;DHT22;29654;50.784;20.604;2022-12-05T22:17:20;10.30;60.20
43991;DHT22;29654;50.784;20.604;2022-12-05T22:22:23;10.30;60.00
43991;DHT22;29654;50.784;20.604;2022-12-05T22:27:28;10.20;60.00
43991;DHT22;29654;50.784;20.604;2022-12-05T22:32:33;10.20;60.00
43991;DHT22;29654;50.784;20.604;2022-12-05T22:37:36;10.10;60.10
43991;DHT22;29654;50.784;20.604;2022-12-05T22:42:38;10.10;60.20
43991;DHT22;29654;50.784;20.604;2022-12-05T22:47:43;10.00;60.20
43991;DHT22;29654;50.784;20.604;2022-12-05T22:52:46;10.00;60.30
43991;DHT22;29654;50.784;20.604;2022-12-05T22:57:49;10.00;60.40
43991;DHT22;29654;50.784;20.604;2022-12-05T23:02:53;10.00;60.30
43991;DHT22;29654;50.784;20.604;2022-12-05T23:07:56;10.00;60.20
43991;DHT22;29654;50.784;20.604;2022-12-05T23:12:59;9.90;60.20
43991;DHT22;29654;50.784;20.604;2022-12-05T23:18:04;9.90;60.50
43991;DHT22;29654;50.784;20.604;2022-12-05T23:23:07;9.90;60.70
43991;DHT22;29654;50.784;20.604;2022-12-05T23:28:10;9.90;60.50
43991;DHT22;29654;50.784;20.604;2022-12-05T23:33:14;9.90;60.50
43991;DHT22;29654;50.784;20.604;2022-12-05T23:38:17;9.90;60.50
43991;DHT22;29654;50.784;20.604;2022-12-05T23:43:20;9.80;60.40
43991;DHT22;29654;50.784;20.604;2022-12-05T23:48:24;9.80;60.50
43991;DHT22;29654;50.784;20.604;2022-12-05T23:53:28;9.80;60.50
43991;DHT22;29654;50.784;20.604;2022-12-05T23:58:31;9.70;60.50
